首页
METAR-TAF:

METAR-TAF

机场 :

孔戈尼亚斯/圣保罗机场

聖保羅, 圣保罗州, 巴西

纬度: 23-37S, 经度: 046-39W, 海拔: 803米

当前天气观测

该预报发布于59分钟前的01:00 UTC
风速10节,风向东南
温度 15°C
湿度 82%
气压 1021 hPa
能见度10公里或以上
散云层高于900英尺
阴天层高于1100英尺

METAR: SBSP 220100Z 13010KT 9999 SCT009 OVC011 15/12 Q1021

时间: 23:59 (01:59 UTC)

预报

该预报发布于3小时和59分钟前的22:00 UTC
预报有效从22日的 00点(UTC)到 22日的 24点(UTC)
风速10节,风向东南
能见度10公里或以上
多云层高于1500英尺
成为
从 22日的 00点(UTC)到 22日的 02点(UTC)
风速5节,风向东转东南
几率 30%
从 22日的 02点(UTC)到 22日的 09点(UTC)
多云层高于1100英尺
成为
从 22日的 09点(UTC)到 22日的 11点(UTC)
风速10节,风向
多云层高于1700英尺
成为
从 22日的 11点(UTC)到 22日的 13点(UTC)
能见度10公里或以上
1500米以下无云,无积雨云
成为
从 22日的 14点(UTC)到 22日的 16点(UTC)
风速11节,风向
散云层高于3300英尺
成为
从 22日的 19点(UTC)到 22日的 21点(UTC)
风速6节,风向东南
能见度10公里或以上
1500米以下无云,无积雨云
成为
从 22日的 22点(UTC)到 22日的 24点(UTC)
风速4节,风向东北

TAF: SBSP 212200Z 2200/2224 14010KT 9999 BKN015 TN13/2208Z TX25/2217Z BECMG 2200/2202 12005KT PROB30 2202/2209 BKN011 BECMG 2209/2211 10010KT BKN017 BECMG 2211/2213 CAVOK BECMG 2214/2216 18011KT SCT033 BECMG 2219/2221 13006KT CAVOK BECMG 2222/2224 05004KT RMK PGE

超过4000个机场的气象观测和天气预报(METAR&TAF报告)。

可查询的气象台以黄色和红色小点在地图上表示。

将鼠标移到小点上方,可查看气象台名称。

然后点击查看天气观测和预报。

如需切换地图:点击带黑十字的绿色按钮放大地图;点击带横线的绿色按钮缩小地图;或者点击绿色箭头查看邻近地区的地图。


METAR-TAF: